• Join FlightAware (Why Join?)
  • Login
  • US Flag 
04:35AM EDT


 

Airport Tracker/Info


-or-


 

Live Flight TrackerFlight Track Log ✈ SWA2058 ✈ 04-May-2013 ✈ KRNO - KLAS

Flight Track Log - Related Links

Times and Time Zones

All times are in EDT time to prevent confusion due to time zone crossing. See the SWA2058 flight status page for this flight to view local times or setup timezone preferences in your user account.

Time Position Orientation Groundspeed Altitude Reporting Facility
EDT Latitude Longitude Course Direction KTS MPH feet Rate Location/Type
07:38PM 39.5333 -119.7500 142° Southeast 164 189 6,200  Level Northern Cal TRACON
07:39PM 39.5833 -119.7167 27° Northeast 237 273 9,200 3,180 Climbing Northern Cal TRACON
07:40PM 39.4914 -119.5906 133° Southeast 302 348 15,100 3,360 Climbing Oakland Center
07:41PM 39.4272 -119.5169 138° Southeast 311 358 18,700 2,580 Climbing Oakland Center
07:42PM 39.3503 -119.4547 148° Southeast 327 376 20,500 2,100 Climbing Oakland Center
07:43PM 39.0724 -119.0890 142° Southeast  Level FlightAware Approximate
07:43PM 39.2792 -119.3708 138° Southeast 344 396 23,100  Level Oakland Center
07:44PM 39.2033 -119.2819 138° Southeast 365 420 25,800 2,340 Climbing Oakland Center
07:45PM 39.1242 -119.1906 138° Southeast 381 438 27,900 2,280 Climbing Oakland Center
07:46PM 39.0403 -119.0903 137° Southeast 411 473 30,500 2,460 Climbing Oakland Center
07:48PM 38.9411 -118.9769 138° Southeast 402 463 33,000 1,200 Climbing Oakland Center
07:49PM 38.8503 -118.8822 141° Southeast 420 483 33,000  Level Oakland Center
07:50PM 38.7494 -118.8128 152° Southeast 413 475 33,000  Level Oakland Center
07:51PM 38.6553 -118.7264 144° Southeast 420 483 33,000  Level Oakland Center
07:52PM 38.5664 -118.6289 139° Southeast 422 486 33,000  Level Oakland Center
07:53PM 38.4783 -118.5333 140° Southeast 418 481 33,000  Level Oakland Center
07:54PM 38.3908 -118.4369 139° Southeast 418 481 33,000  Level Oakland Center
07:55PM 38.3031 -118.3419 140° Southeast 414 476 33,000  Level Oakland Center
07:56PM 38.2153 -118.2464 139° Southeast 415 478 33,000  Level Oakland Center
07:57PM 38.1122 -118.1331 139° Southeast 419 482 33,000  Level Oakland Center
07:58PM 38.0228 -118.0381 140° Southeast 419 482 33,000  Level Oakland Center
07:59PM 37.9350 -117.9431 140° Southeast 418 481 33,000  Level Oakland Center
08:00PM 37.8464 -117.8478 140° Southeast 420 483 33,000  Level Oakland Center
08:01PM 37.7578 -117.7542 140° Southeast 418 481 33,000  Level Oakland Center
08:02PM 37.6697 -117.6586 139° Southeast 420 483 33,000  Level Oakland Center
08:03PM 37.5800 -117.5642 140° Southeast 421 484 33,000  Level Oakland Center
08:04PM 37.4903 -117.4692 140° Southeast 423 487 33,000  Level Oakland Center
08:05PM 37.3819 -117.3556 140° Southeast 423 487 33,000  Level Oakland Center
08:06PM 37.2917 -117.2619 140° Southeast 422 486 33,000  Level Oakland Center
08:07PM 37.2025 -117.1681 140° Southeast 420 483 33,000  Level Oakland Center
08:08PM 37.1139 -117.0739 140° Southeast 418 481 33,000  Level Oakland Center
08:09PM 37.0247 -116.9803 140° Southeast 418 481 33,000  Level Oakland Center
08:10PM 36.9350 -116.8883 141° Southeast 417 480 33,000  Level Oakland Center
08:11PM 36.8436 -116.7942 140° Southeast 422 486 33,000 -360 Level Oakland Center
08:12PM 36.7567 -116.6906 136° Southeast 429 494 32,300 -1,860 Descending Oakland Center
08:13PM 36.6761 -116.5706 130° Southeast 446 513 29,300 -2,580 Descending Oakland Center
08:14PM 36.5814 -116.4344 131° Southeast 436 502 26,700 -2,160 Descending Los Angeles Center
08:15PM 36.5056 -116.3261 131° Southeast 419 482 24,600 -2,040 Descending Los Angeles Center
08:16PM 36.4331 -116.2242 131° Southeast 403 464 22,600 -2,220 Descending Los Angeles Center
08:17PM 36.3750 -116.1494 134° Southeast 392 451 21,000 -2,280 Descending Los Angeles Center
08:17PM 36.3481 -116.1128 132° Southeast 387 445 20,300 -1,800 Descending Los Angeles Center
08:18PM 36.2894 -116.0278 131° Southeast 351 404 18,600 -1,860 Descending Los Angeles Center
08:19PM 36.2225 -115.9347 132° Southeast 340 391 16,600 -1,260 Descending Los Angeles Center
08:20PM 36.1778 -115.8347 119° Southeast 310 357 16,000 -420 Descending Los Angeles Center
08:21PM 36.1719 -115.8072 105° East 322 371 16,100 60 Climbing Los Angeles Center
08:21PM 36.1456 -115.7333 114° Southeast 311 358 16,100 -240 Level Los Angeles Center
08:22PM 36.1397 -115.7083 106° East 311 358 15,900 -1,440 Descending Los Angeles Center
08:22PM 36.1153 -115.6419 114° Southeast 318 366 14,800 -1,560 Descending Los Angeles Center
08:23PM 36.1061 -115.6078 108° East 315 362 14,300 -1,620 Descending Los Angeles Center
08:23PM 36.0831 -115.5408 113° Southeast 313 360 13,200 -1,500 Descending Los Angeles Center
08:24PM 36.0769 -115.5158 107° East 311 358 12,800 -1,680 Descending Los Angeles Center
08:24PM 36.0506 -115.4397 113° Southeast 317 365 11,500 -1,680 Descending Los Angeles Center
08:25PM 36.0386 -115.3969 109° East 311 358 11,100 -600 Descending Los Angeles Center
08:25PM 36.0286 -115.3381 102° East 294 338 10,900 -720 Descending Los Angeles Center
08:26PM 36.0250 -115.2989 96° East 298 343 10,400 -1,200 Descending Los Angeles Center
08:26PM 36.0203 -115.2397 96° East 277 319 9,700 -1,080 Descending Los Angeles Center
08:27PM 36.0186 -115.2061 93° East 279 321 9,300 -1,140 Descending Los Angeles Center
08:27PM 36.0150 -115.1458 94° East 276 318 8,600 -900 Descending Los Angeles Center
08:28PM 36.0133 -115.1125 94° East 275 316 8,400 -840 Descending Los Angeles Center
08:28PM 36.0078 -115.0631 98° East 240 276 7,800 -600 Descending Los Angeles Center
08:29PM 36.0069 -115.0331 92° East 245 282 7,800 -1,020 Level Los Angeles Center
08:29PM 36.0083 -114.9964 87° East 191 220 6,800 -1,380 Descending Los Angeles Center
08:30PM 36.0233 -114.9775 46° Northeast 210 242 6,400 -1,200 Descending Los Angeles Center
08:30PM 36.0539 -114.9867 346° North 184 212 5,600 -900 Descending Los Angeles Center
08:31PM 36.0617 -114.9917 333° Northwest 195 224 5,500 -1,380 Descending Los Angeles Center
08:31PM 36.0686 -115.0350 281° West 150 173 4,200 -2,160 Descending Los Angeles Center
08:32PM 36.0617 -115.0536 245° Southwest 155 178 3,300 -1,380 Descending Los Angeles Center
08:32PM 36.0692 -115.0772 291° West 133 153 2,800 -600 Descending Los Angeles Center
08:33PM 36.0747 -115.0936 293° West 136 157 2,600 -600 Descending Los Angeles Center
08:33PM 36.0739 -115.1183 268° West 126 145 2,200 -480 Descending Los Angeles Center
08:34PM 36.0753 -115.1417 274° West 125 144 2,100 -180 Descending Los Angeles Center
08:36PM 36.0667 -115.1500 270° West  Level FlightAware Approximate